createdAt,value
2018-09-10T00:01:49.676Z,14.52
2018-09-10T00:04:24.428Z,14.50
2018-09-10T00:06:59.520Z,14.47
2018-09-10T00:09:33.892Z,14.39
2018-09-10T00:12:08.328Z,14.41
2018-09-10T00:14:42.832Z,14.39
2018-09-10T00:17:17.361Z,14.33
2018-09-10T00:19:51.653Z,14.32
2018-09-10T00:22:26.432Z,14.30
2018-09-10T00:25:00.873Z,14.29
2018-09-10T00:27:35.332Z,14.32
2018-09-10T00:30:10.580Z,14.27
2018-09-10T00:32:45.116Z,14.20
2018-09-10T00:35:20.047Z,14.25
2018-09-10T00:37:54.394Z,14.17
2018-09-10T00:40:28.729Z,14.14
2018-09-10T00:43:03.225Z,14.15
2018-09-10T00:45:37.721Z,14.10
2018-09-10T00:48:12.049Z,14.08
2018-09-10T00:50:46.844Z,14.05
2018-09-10T00:53:21.348Z,14.03
2018-09-10T00:55:56.308Z,14.02
2018-09-10T00:58:30.848Z,14.01
2018-09-10T01:01:05.465Z,13.96
2018-09-10T01:03:40.041Z,13.92
2018-09-10T01:06:14.720Z,13.88
2018-09-10T01:08:49.244Z,13.86
2018-09-10T01:11:24.082Z,13.84
2018-09-10T01:13:58.848Z,13.85
2018-09-10T01:16:33.155Z,13.79
2018-09-10T01:19:07.884Z,13.78
2018-09-10T01:21:42.992Z,13.70
2018-09-10T01:24:17.380Z,13.71
2018-09-10T01:26:52.316Z,13.70
2018-09-10T01:29:26.628Z,13.77
2018-09-10T01:32:01.108Z,13.70
2018-09-10T01:34:40.812Z,13.61
2018-09-10T01:37:15.132Z,13.62
2018-09-10T01:39:49.408Z,13.62
2018-09-10T01:42:23.749Z,13.61
2018-09-10T01:44:59.064Z,13.53
2018-09-10T01:47:33.544Z,13.51
2018-09-10T01:50:08.172Z,13.50
2018-09-10T01:52:42.608Z,13.48
2018-09-10T01:55:16.869Z,13.53
2018-09-10T01:57:51.520Z,13.53
2018-09-10T02:00:25.928Z,13.51
2018-09-10T02:03:00.205Z,13.51
2018-09-10T02:05:35.248Z,13.45
2018-09-10T02:08:09.625Z,13.47
2018-09-10T02:10:44.557Z,13.45
2018-09-10T02:13:19.171Z,13.42
2018-09-10T02:15:53.709Z,13.35
2018-09-10T02:18:27.951Z,13.34
2018-09-10T02:21:02.468Z,13.33
2018-09-10T02:23:36.870Z,13.43
2018-09-10T02:26:12.281Z,13.32
2018-09-10T02:28:46.856Z,13.26
2018-09-10T02:31:21.632Z,13.22
2018-09-10T02:33:56.665Z,13.19
2018-09-10T02:36:31.034Z,13.12
2018-09-10T02:39:06.909Z,13.19
2018-09-10T02:41:43.905Z,13.21
2018-09-10T02:44:18.267Z,13.17
2018-09-10T02:46:52.728Z,13.07
2018-09-10T02:49:27.521Z,13.04
2018-09-10T02:52:03.564Z,13.04
2018-09-10T02:54:38.105Z,12.97
2018-09-10T02:57:13.035Z,13.01
2018-09-10T02:59:47.343Z,12.97
2018-09-10T03:02:21.856Z,12.92
2018-09-10T03:04:56.424Z,12.89
2018-09-10T03:07:31.316Z,12.86
2018-09-10T03:10:05.932Z,12.84
2018-09-10T03:12:40.268Z,12.82
2018-09-10T03:15:14.634Z,12.81
2018-09-10T03:17:49.062Z,12.83
2018-09-10T03:20:23.616Z,12.77
2018-09-10T03:22:58.319Z,12.68
2018-09-10T03:25:32.672Z,12.64
2018-09-10T03:28:06.926Z,12.60
2018-09-10T03:30:41.266Z,12.61
2018-09-10T03:33:16.012Z,12.56
2018-09-10T03:35:50.364Z,12.53
2018-09-10T03:38:24.918Z,12.50
2018-09-10T03:40:59.442Z,12.48
2018-09-10T03:43:34.297Z,12.46
2018-09-10T03:46:08.744Z,12.43
2018-09-10T03:48:43.522Z,12.36
2018-09-10T03:51:17.824Z,12.34
2018-09-10T03:53:52.241Z,12.30
2018-09-10T03:56:27.263Z,12.29
2018-09-10T03:59:01.764Z,12.24
2018-09-10T04:01:36.521Z,12.23
2018-09-10T04:04:11.451Z,12.22
2018-09-10T04:06:46.732Z,12.20
2018-09-10T04:09:21.080Z,12.20
2018-09-10T04:11:55.669Z,12.25
2018-09-10T04:14:30.032Z,12.24
2018-09-10T04:17:05.132Z,12.17
2018-09-10T04:19:40.128Z,12.15
2018-09-10T04:22:14.999Z,12.19
2018-09-10T04:24:49.404Z,12.15
2018-09-10T04:27:24.020Z,12.14
2018-09-10T04:29:58.439Z,12.09
2018-09-10T04:32:32.930Z,12.05
2018-09-10T04:35:08.036Z,12.00
2018-09-10T04:37:42.463Z,11.98
2018-09-10T04:40:16.976Z,11.93
2018-09-10T04:42:51.411Z,11.93
2018-09-10T04:45:26.073Z,11.91
2018-09-10T04:48:00.481Z,11.92
2018-09-10T04:50:35.333Z,11.91
2018-09-10T04:53:09.675Z,11.93
2018-09-10T04:55:44.349Z,11.93
2018-09-10T04:58:19.317Z,11.96
2018-09-10T05:00:53.632Z,11.97
2018-09-10T05:03:28.024Z,12.02
2018-09-10T05:06:02.377Z,12.07
2018-09-10T05:08:36.817Z,12.09
2018-09-10T05:11:11.801Z,12.06
2018-09-10T05:13:46.461Z,12.09
2018-09-10T05:16:21.291Z,12.14
2018-09-10T05:18:55.717Z,12.17
2018-09-10T05:21:30.274Z,12.18
2018-09-10T05:24:04.980Z,12.22
2018-09-10T05:26:39.382Z,12.35
2018-09-10T05:29:13.888Z,12.37
2018-09-10T05:31:48.344Z,12.34
2018-09-10T05:34:22.648Z,12.37
2018-09-10T05:36:57.305Z,12.40
2018-09-10T05:39:31.783Z,12.41
2018-09-10T05:42:06.480Z,12.46
2018-09-10T05:44:40.937Z,12.48
2018-09-10T05:47:15.243Z,12.55
2018-09-10T05:49:49.572Z,12.68
2018-09-10T05:52:23.983Z,12.73
2018-09-10T05:54:58.900Z,12.78
2018-09-10T05:57:33.459Z,12.90
2018-09-10T06:00:09.049Z,12.96
2018-09-10T06:02:43.848Z,13.16
2018-09-10T06:05:18.583Z,13.19
2018-09-10T06:07:53.678Z,13.29
2018-09-10T06:10:28.613Z,13.37
2018-09-10T06:13:03.705Z,13.48
2018-09-10T06:15:38.530Z,13.59
2018-09-10T06:18:12.926Z,13.69
2018-09-10T06:20:47.253Z,13.73
2018-09-10T06:23:21.860Z,13.82
2018-09-10T06:25:56.791Z,13.90
2018-09-10T06:28:31.723Z,13.98
2018-09-10T06:31:06.364Z,14.09
2018-09-10T06:33:41.824Z,14.21
2018-09-10T06:36:16.303Z,14.31
2018-09-10T06:38:51.093Z,14.39
2018-09-10T06:41:25.402Z,14.52
2018-09-10T06:44:00.036Z,14.66
2018-09-10T06:46:34.837Z,14.79
2018-09-10T06:49:09.312Z,14.91
2018-09-10T06:51:43.799Z,15.00
2018-09-10T06:54:18.069Z,15.13
2018-09-10T06:56:52.396Z,15.21
2018-09-10T06:59:26.885Z,15.33
2018-09-10T07:02:01.724Z,15.44
2018-09-10T07:04:36.537Z,15.53
2018-09-10T07:07:11.072Z,15.60
2018-09-10T07:09:45.368Z,15.73
2018-09-10T07:12:19.671Z,15.81
2018-09-10T07:14:53.928Z,15.90
2018-09-10T07:17:28.420Z,15.96
2018-09-10T07:20:03.793Z,16.03
2018-09-10T07:22:38.249Z,16.21
2018-09-10T07:25:12.595Z,16.34
2018-09-10T07:27:47.067Z,16.48
2018-09-10T07:30:21.980Z,16.56
2018-09-10T07:32:56.324Z,16.61
2018-09-10T07:35:30.693Z,16.75
2018-09-10T07:38:05.637Z,16.87
2018-09-10T07:40:40.143Z,17.02
2018-09-10T07:43:14.756Z,17.12
2018-09-10T07:45:49.148Z,17.26
2018-09-10T07:48:23.585Z,17.35
2018-09-10T07:50:58.464Z,17.38
2018-09-10T07:53:33.288Z,17.56
2018-09-10T07:56:08.004Z,17.69
2018-09-10T07:58:42.700Z,17.86
2018-09-10T08:01:17.452Z,18.24
2018-09-10T08:03:52.232Z,18.20
2018-09-10T08:06:26.566Z,18.36
2018-09-10T08:09:01.248Z,18.52
2018-09-10T08:11:41.151Z,18.86
2018-09-10T08:14:15.511Z,19.20
2018-09-10T08:16:50.032Z,19.34
2018-09-10T08:19:25.712Z,19.63
2018-09-10T08:22:00.464Z,19.63
2018-09-10T08:24:35.256Z,19.81
2018-09-10T08:27:10.428Z,19.96
2018-09-10T08:29:44.955Z,20.27
2018-09-10T08:32:19.487Z,20.45
2018-09-10T08:34:53.992Z,20.58
2018-09-10T08:37:29.337Z,20.91
2018-09-10T08:40:05.182Z,21.07
2018-09-10T08:42:40.541Z,21.27
2018-09-10T08:45:15.601Z,21.60
2018-09-10T08:47:50.920Z,21.86
2018-09-10T08:50:25.408Z,21.98
2018-09-10T08:53:00.314Z,22.02
2018-09-10T08:55:35.058Z,22.24
2018-09-10T08:58:09.832Z,22.16
2018-09-10T09:00:44.636Z,22.33
2018-09-10T09:03:18.992Z,22.78
2018-09-10T09:05:54.102Z,22.95
2018-09-10T09:08:28.948Z,22.92
2018-09-10T09:11:03.684Z,23.27
2018-09-10T09:13:37.997Z,23.49
2018-09-10T09:16:12.720Z,23.60
2018-09-10T09:18:47.757Z,23.67
2018-09-10T09:21:22.648Z,23.92
2018-09-10T09:23:57.352Z,24.23
2018-09-10T09:26:32.232Z,24.49
2018-09-10T09:29:06.788Z,24.56
2018-09-10T09:31:41.231Z,24.70
2018-09-10T09:34:15.696Z,24.97
2018-09-10T09:36:55.873Z,25.05
2018-09-10T09:39:35.645Z,25.09
2018-09-10T09:42:15.512Z,25.18
2018-09-10T09:44:55.625Z,25.32
2018-09-10T09:47:30.182Z,25.10
2018-09-10T09:50:04.604Z,25.16
2018-09-10T09:52:39.165Z,25.36
2018-09-10T09:55:13.957Z,25.18
2018-09-10T09:57:48.368Z,25.21
2018-09-10T10:00:28.100Z,25.52
2018-09-10T10:03:08.050Z,25.64
2018-09-10T10:05:43.912Z,25.92
2018-09-10T10:08:18.824Z,26.11
2018-09-10T10:10:53.120Z,26.56
2018-09-10T10:13:27.467Z,26.79
2018-09-10T10:16:02.083Z,26.85
2018-09-10T10:18:36.687Z,26.89
2018-09-10T10:21:11.046Z,26.82
2018-09-10T10:23:45.342Z,26.94
2018-09-10T10:26:20.150Z,27.15
2018-09-10T10:28:54.646Z,27.53
2018-09-10T10:31:29.156Z,27.50
2018-09-10T10:34:03.825Z,27.20
2018-09-10T10:36:38.120Z,27.00
2018-09-10T10:39:12.930Z,26.92
2018-09-10T10:41:47.875Z,27.13
2018-09-10T10:44:22.243Z,27.38
2018-09-10T10:46:56.716Z,27.50
2018-09-10T10:49:31.151Z,27.83
2018-09-10T10:52:05.900Z,28.26
2018-09-10T10:54:40.343Z,28.49
2018-09-10T10:57:14.664Z,28.52
2018-09-10T10:59:49.006Z,28.42
2018-09-10T11:02:23.372Z,28.44
2018-09-10T11:04:57.667Z,28.69
2018-09-10T11:07:31.968Z,28.03
2018-09-10T11:10:07.072Z,28.02
2018-09-10T11:12:41.533Z,28.10
2018-09-10T11:15:16.126Z,28.26
2018-09-10T11:17:50.442Z,28.24
2018-09-10T11:20:24.700Z,28.57
2018-09-10T11:22:59.211Z,28.69
2018-09-10T11:25:33.801Z,28.40
2018-09-10T11:28:08.584Z,28.49
2018-09-10T11:30:43.688Z,28.67
2018-09-10T11:33:18.184Z,28.86
2018-09-10T11:35:53.766Z,28.47
2018-09-10T11:38:28.105Z,28.39
2018-09-10T11:41:03.172Z,28.69
2018-09-10T11:43:37.840Z,28.95
2018-09-10T11:46:12.324Z,28.76
2018-09-10T11:48:46.699Z,28.49
2018-09-10T11:51:21.393Z,27.93
2018-09-10T11:53:55.731Z,27.39
2018-09-10T11:56:30.133Z,27.10
2018-09-10T11:59:04.779Z,26.91
2018-09-10T12:01:39.251Z,26.89
2018-09-10T12:04:15.587Z,27.27
2018-09-10T12:06:50.193Z,27.44
2018-09-10T12:09:24.578Z,27.59
2018-09-10T12:11:59.033Z,27.56
2018-09-10T12:14:33.723Z,27.60
2018-09-10T12:17:08.212Z,27.16
2018-09-10T12:19:42.903Z,26.72
2018-09-10T12:22:17.511Z,26.67
2018-09-10T12:24:52.149Z,27.02
2018-09-10T12:27:26.764Z,27.21
2018-09-10T12:30:01.516Z,27.44
2018-09-10T12:32:36.279Z,27.40
2018-09-10T12:35:10.701Z,27.33
2018-09-10T12:37:44.980Z,27.34
2018-09-10T12:40:19.757Z,27.28
2018-09-10T12:42:54.174Z,27.22
2018-09-10T12:45:28.689Z,27.42
2018-09-10T12:48:03.334Z,27.40
2018-09-10T12:50:38.104Z,27.48
2018-09-10T12:53:12.592Z,27.55
2018-09-10T12:55:47.009Z,27.39
2018-09-10T12:58:21.856Z,27.35
2018-09-10T13:00:56.120Z,27.31
2018-09-10T13:03:30.410Z,27.35
2018-09-10T13:06:05.177Z,27.46
2018-09-10T13:08:39.977Z,27.07
2018-09-10T13:11:15.000Z,26.88
2018-09-10T13:13:50.007Z,26.73
2018-09-10T13:16:24.677Z,26.90
2018-09-10T13:18:59.240Z,27.22
2018-09-10T13:21:33.740Z,27.24
2018-09-10T13:24:08.611Z,27.39
2018-09-10T13:26:43.534Z,27.06
2018-09-10T13:29:18.351Z,27.03
2018-09-10T13:31:52.859Z,27.01
2018-09-10T13:34:27.409Z,27.06
2018-09-10T13:37:02.601Z,27.03
2018-09-10T13:39:37.448Z,26.92
2018-09-10T13:42:12.048Z,26.88
2018-09-10T13:44:47.172Z,26.83
2018-09-10T13:47:21.973Z,27.23
2018-09-10T13:49:56.488Z,27.24
2018-09-10T13:52:31.224Z,27.26
2018-09-10T13:55:06.057Z,27.01
2018-09-10T13:57:40.480Z,27.19
2018-09-10T14:00:15.625Z,27.12
2018-09-10T14:02:50.185Z,27.04
2018-09-10T14:05:24.523Z,27.26
2018-09-10T14:07:58.977Z,27.32
2018-09-10T14:10:33.867Z,27.52
2018-09-10T14:13:08.540Z,27.22
2018-09-10T14:15:43.249Z,26.92
2018-09-10T14:18:19.225Z,26.64
2018-09-10T14:20:54.340Z,26.27
2018-09-10T14:23:28.870Z,26.19
2018-09-10T14:26:03.695Z,26.41
2018-09-10T14:28:38.484Z,26.94
2018-09-10T14:31:13.483Z,27.13
2018-09-10T14:33:47.915Z,27.26
2018-09-10T14:36:22.348Z,27.33
2018-09-10T14:38:57.088Z,27.58
2018-09-10T14:41:31.994Z,27.62
2018-09-10T14:44:06.981Z,27.33
2018-09-10T14:46:41.424Z,27.25
2018-09-10T14:49:19.798Z,27.27
2018-09-10T14:52:01.158Z,27.39
2018-09-10T14:54:36.992Z,27.34
2018-09-10T14:57:11.688Z,27.33
2018-09-10T14:59:46.675Z,27.39
2018-09-10T15:02:24.430Z,27.34
2018-09-10T15:04:58.867Z,27.22
2018-09-10T15:07:33.546Z,27.18
2018-09-10T15:10:09.081Z,27.18
2018-09-10T15:12:43.557Z,27.07
2018-09-10T15:15:18.385Z,27.13
2018-09-10T15:17:52.825Z,27.14
2018-09-10T15:20:27.697Z,27.00
2018-09-10T15:23:02.780Z,26.56
2018-09-10T15:25:37.442Z,26.13
2018-09-10T15:28:11.968Z,25.94
2018-09-10T15:30:46.480Z,25.86
2018-09-10T15:33:21.416Z,25.91
2018-09-10T15:35:56.033Z,26.07
2018-09-10T15:38:31.042Z,25.84
2018-09-10T15:41:05.999Z,25.77
2018-09-10T15:43:41.355Z,25.69
2018-09-10T15:46:20.424Z,25.49
2018-09-10T15:48:55.431Z,25.58
2018-09-10T15:51:32.070Z,25.54
2018-09-10T15:54:07.091Z,25.45
2018-09-10T15:56:41.872Z,25.25
2018-09-10T15:59:18.472Z,25.24
2018-09-10T16:01:53.137Z,25.26
2018-09-10T16:04:27.576Z,25.40
2018-09-10T16:07:02.175Z,25.51
2018-09-10T16:09:37.332Z,25.67
2018-09-10T16:12:12.328Z,25.71
2018-09-10T16:14:46.857Z,25.66
2018-09-10T16:17:21.427Z,25.51
2018-09-10T16:19:56.626Z,25.39
2018-09-10T16:22:31.639Z,25.57
2018-09-10T16:25:06.767Z,25.41
2018-09-10T16:27:41.921Z,25.25
2018-09-10T16:30:16.636Z,25.22
2018-09-10T16:32:51.090Z,25.14
2018-09-10T16:35:26.107Z,24.87
2018-09-10T16:38:00.495Z,24.71
2018-09-10T16:40:35.004Z,24.57
2018-09-10T16:43:09.772Z,24.37
2018-09-10T16:45:44.173Z,24.20
2018-09-10T16:48:18.676Z,24.01
2018-09-10T16:50:55.379Z,23.84
2018-09-10T16:53:29.688Z,23.68
2018-09-10T16:56:04.171Z,23.56
2018-09-10T16:58:38.871Z,23.40
2018-09-10T17:01:13.862Z,23.29
2018-09-10T17:03:48.704Z,23.15
2018-09-10T17:06:23.253Z,23.04
2018-09-10T17:08:57.814Z,22.94
2018-09-10T17:11:32.780Z,22.86
2018-09-10T17:14:07.545Z,22.80
2018-09-10T17:16:42.204Z,22.70
2018-09-10T17:19:16.597Z,22.62
2018-09-10T17:21:51.473Z,22.55
2018-09-10T17:24:25.935Z,22.49
2018-09-10T17:27:00.488Z,22.41
2018-09-10T17:29:34.832Z,22.35
2018-09-10T17:32:09.583Z,22.27
2018-09-10T17:34:44.326Z,22.14
2018-09-10T17:37:19.578Z,21.97
2018-09-10T17:39:54.444Z,21.89
2018-09-10T17:42:28.835Z,21.85
2018-09-10T17:45:03.594Z,21.78
2018-09-10T17:47:39.413Z,21.68
2018-09-10T17:50:14.961Z,21.61
2018-09-10T17:52:51.439Z,21.51
2018-09-10T17:55:25.844Z,21.46
2018-09-10T17:58:00.829Z,21.37
2018-09-10T18:00:39.442Z,21.33
2018-09-10T18:03:14.130Z,21.28
2018-09-10T18:05:48.480Z,21.20
2018-09-10T18:08:23.424Z,21.11
2018-09-10T18:10:59.321Z,21.02
2018-09-10T18:13:34.220Z,20.97
2018-09-10T18:16:09.019Z,20.88
2018-09-10T18:18:44.946Z,20.80
2018-09-10T18:21:21.091Z,20.73
2018-09-10T18:23:56.180Z,20.68
2018-09-10T18:26:30.820Z,20.68
2018-09-10T18:29:05.750Z,20.67
2018-09-10T18:31:40.333Z,20.62
2018-09-10T18:34:19.954Z,20.62
2018-09-10T18:36:58.709Z,20.55
2018-09-10T18:39:33.308Z,20.52
2018-09-10T18:42:08.160Z,20.49
2018-09-10T18:44:42.752Z,20.49
2018-09-10T18:47:18.889Z,20.48
2018-09-10T18:49:54.650Z,20.46
2018-09-10T18:52:29.093Z,20.40
2018-09-10T18:55:05.658Z,20.35
2018-09-10T18:57:40.577Z,20.27
2018-09-10T19:00:15.392Z,20.23
2018-09-10T19:02:50.852Z,20.20
2018-09-10T19:05:25.136Z,20.15
2018-09-10T19:07:59.534Z,20.09
2018-09-10T19:10:36.550Z,20.04
2018-09-10T19:13:11.220Z,19.99
2018-09-10T19:15:45.628Z,19.95
2018-09-10T19:18:20.548Z,19.95
2018-09-10T19:20:57.108Z,19.85
2018-09-10T19:23:32.113Z,19.73
2018-09-10T19:26:07.060Z,19.68
2018-09-10T19:28:41.474Z,19.62
2018-09-10T19:31:18.127Z,19.59
2018-09-10T19:33:53.247Z,19.52
2018-09-10T19:36:27.629Z,19.46
2018-09-10T19:39:04.043Z,19.44
2018-09-10T19:41:39.361Z,19.39
2018-09-10T19:44:18.850Z,19.38
2018-09-10T19:46:55.024Z,19.30
2018-09-10T19:49:33.633Z,19.18
2018-09-10T19:54:47.876Z,19.04
2018-09-10T19:57:23.766Z,18.99
2018-09-10T20:00:01.295Z,18.99
2018-09-10T20:02:38.374Z,18.92
2018-09-10T20:05:13.212Z,18.84
2018-09-10T20:07:51.586Z,18.76
2018-09-10T20:10:26.160Z,18.71
2018-09-10T20:13:05.105Z,18.71
2018-09-10T20:15:40.020Z,18.61
2018-09-10T20:18:24.816Z,18.57
2018-09-10T20:21:00.711Z,18.48
2018-09-10T20:23:35.270Z,18.45
2018-09-10T20:26:10.447Z,18.42
2018-09-10T20:28:45.348Z,18.38
2018-09-10T20:31:19.971Z,18.35
2018-09-10T20:34:06.499Z,18.29
2018-09-10T20:36:51.068Z,18.23
2018-09-10T20:39:25.544Z,18.22
2018-09-10T20:42:02.324Z,18.22
2018-09-10T20:44:36.936Z,18.13
2018-09-10T20:47:11.538Z,18.11
2018-09-10T20:49:46.195Z,18.09
2018-09-10T20:52:21.677Z,18.05
2018-09-10T20:54:56.216Z,18.05
2018-09-10T20:57:30.958Z,18.02
2018-09-10T21:00:05.483Z,17.95
2018-09-10T21:02:40.064Z,17.88
2018-09-10T21:05:14.523Z,17.85
2018-09-10T21:07:48.968Z,17.84
2018-09-10T21:10:23.690Z,17.81
2018-09-10T21:12:58.463Z,17.75
2018-09-10T21:15:42.704Z,17.69
2018-09-10T21:18:21.175Z,17.62
2018-09-10T21:20:55.839Z,17.59
2018-09-10T21:23:32.617Z,17.53
2018-09-10T21:26:07.977Z,17.43
2018-09-10T21:28:42.463Z,17.41
2018-09-10T21:31:16.995Z,17.37
2018-09-10T21:33:51.764Z,17.29
2018-09-10T21:36:26.113Z,17.26
2018-09-10T21:39:00.943Z,17.23
2018-09-10T21:41:35.993Z,17.23
2018-09-10T21:44:10.937Z,17.17
2018-09-10T21:46:45.983Z,17.08
2018-09-10T21:49:29.067Z,17.01
2018-09-10T21:52:04.168Z,16.96
2018-09-10T21:54:39.234Z,16.96
2018-09-10T21:57:14.787Z,16.91
2018-09-10T21:59:49.723Z,16.91
2018-09-10T22:02:24.460Z,16.91
2018-09-10T22:04:59.016Z,16.90
2018-09-10T22:07:33.458Z,16.81
2018-09-10T22:10:08.335Z,16.86
2018-09-10T22:12:43.212Z,16.81
2018-09-10T22:15:17.974Z,16.74
2018-09-10T22:17:52.799Z,16.73
2018-09-10T22:20:27.832Z,16.72
2018-09-10T22:23:02.428Z,16.77
2018-09-10T22:25:36.947Z,16.70
2018-09-10T22:28:11.657Z,16.67
2018-09-10T22:30:46.300Z,16.68
2018-09-10T22:33:20.979Z,16.65
2018-09-10T22:35:55.483Z,16.57
2018-09-10T22:38:30.416Z,16.57
2018-09-10T22:41:05.497Z,16.56
2018-09-10T22:43:40.248Z,16.51
2018-09-10T22:46:15.056Z,16.50
2018-09-10T22:48:49.734Z,16.51
2018-09-10T22:51:24.294Z,16.46
2018-09-10T22:53:58.836Z,16.47
2018-09-10T22:56:34.107Z,16.47
2018-09-10T22:59:08.535Z,16.42
2018-09-10T23:01:44.338Z,16.38
2018-09-10T23:04:18.780Z,16.35
2018-09-10T23:06:54.427Z,16.36
2018-09-10T23:12:36.310Z,16.32
2018-09-10T23:15:11.704Z,16.33
2018-09-10T23:17:46.215Z,16.34
2018-09-10T23:20:20.655Z,16.36
2018-09-10T23:22:55.340Z,16.38
2018-09-10T23:25:33.225Z,16.35
2018-09-10T23:28:08.096Z,16.35
2018-09-10T23:30:43.066Z,16.33
2018-09-10T23:33:17.375Z,16.39
2018-09-10T23:35:52.080Z,16.41
2018-09-10T23:38:26.511Z,16.39
2018-09-10T23:41:00.955Z,16.36
2018-09-10T23:43:35.432Z,16.34
2018-09-10T23:46:09.889Z,16.29
2018-09-10T23:48:44.654Z,16.28
2018-09-10T23:51:19.000Z,16.30
2018-09-10T23:53:53.746Z,16.24
2018-09-10T23:56:28.703Z,16.25
2018-09-10T23:59:02.995Z,16.25
